createdAt,value
2019-05-18T00:01:17.710Z,91.42
2019-05-18T00:04:04.337Z,91.45
2019-05-18T00:06:47.895Z,91.16
2019-05-18T00:09:30.352Z,91.44
2019-05-18T00:12:10.666Z,91.28
2019-05-18T00:14:51.354Z,91.66
2019-05-18T00:17:30.765Z,90.59
2019-05-18T00:20:14.413Z,91.11
2019-05-18T00:22:59.539Z,90.74
2019-05-18T00:25:42.756Z,90.54
2019-05-18T00:28:23.079Z,90.45
2019-05-18T00:31:03.398Z,90.38
2019-05-18T00:33:43.379Z,90.37
2019-05-18T00:36:35.727Z,90.63
2019-05-18T00:39:17.572Z,90.42
2019-05-18T00:41:57.859Z,90.40
2019-05-18T00:44:37.795Z,89.91
2019-05-18T00:47:19.950Z,90.84
2019-05-18T00:50:00.504Z,90.16
2019-05-18T00:52:47.778Z,90.29
2019-05-18T00:55:24.749Z,90.86
2019-05-18T00:58:08.886Z,91.23
2019-05-18T01:00:49.120Z,92.94
2019-05-18T01:03:29.554Z,93.10
2019-05-18T01:06:09.821Z,92.81
2019-05-18T01:08:48.908Z,93.21
2019-05-18T01:11:28.674Z,92.74
2019-05-18T01:14:08.952Z,92.33
2019-05-18T01:16:49.407Z,92.52
2019-05-18T01:19:29.852Z,91.56
2019-05-18T01:22:10.332Z,91.61
2019-05-18T01:24:51.895Z,92.46
2019-05-18T01:27:32.041Z,92.15
2019-05-18T01:30:15.403Z,92.65
2019-05-18T01:32:59.965Z,92.87
2019-05-18T01:35:40.979Z,92.15
2019-05-18T01:38:21.107Z,92.75
2019-05-18T01:41:04.523Z,93.73
2019-05-18T01:43:44.711Z,93.64
2019-05-18T01:46:28.355Z,93.81
2019-05-18T01:49:14.351Z,93.08
2019-05-18T01:51:55.387Z,92.41
2019-05-18T01:54:35.529Z,92.47
2019-05-18T01:57:16.544Z,92.60
2019-05-18T01:59:56.444Z,91.91
2019-05-18T02:02:35.941Z,92.19
2019-05-18T02:05:15.913Z,92.01
2019-05-18T02:08:00.492Z,92.12
2019-05-18T02:10:48.086Z,92.22
2019-05-18T02:13:25.640Z,92.95
2019-05-18T02:16:08.475Z,92.43
2019-05-18T02:18:51.468Z,91.74
2019-05-18T02:21:31.323Z,91.41
2019-05-18T02:24:16.743Z,91.80
2019-05-18T02:26:56.977Z,92.06
2019-05-18T02:29:36.619Z,92.85
2019-05-18T02:32:18.146Z,93.70
2019-05-18T02:34:59.789Z,93.29
2019-05-18T02:37:39.916Z,92.60
2019-05-18T02:40:20.448Z,92.52
2019-05-18T02:42:56.455Z,92.52
2019-05-18T02:45:37.625Z,92.62
2019-05-18T02:48:16.655Z,92.75
2019-05-18T02:50:57.336Z,93.11
2019-05-18T02:53:35.175Z,93.80
2019-05-18T02:56:18.726Z,94.35
2019-05-18T02:58:59.473Z,96.21
2019-05-18T03:01:42.385Z,96.93
2019-05-18T03:04:22.053Z,97.12
2019-05-18T03:07:02.548Z,96.34
2019-05-18T03:09:43.150Z,95.47
2019-05-18T03:12:22.563Z,94.94
2019-05-18T03:15:02.622Z,94.14
2019-05-18T03:17:45.856Z,94.18
2019-05-18T03:20:26.182Z,94.28
2019-05-18T03:23:06.454Z,95.94
2019-05-18T03:25:46.298Z,95.94
2019-05-18T03:28:30.207Z,96.48
2019-05-18T03:31:15.266Z,96.29
2019-05-18T03:34:00.021Z,97.10
2019-05-18T03:36:40.019Z,97.41
2019-05-18T03:39:19.619Z,96.94
2019-05-18T03:41:48.937Z,96.85
2019-05-18T03:44:18.067Z,96.44
2019-05-18T03:46:48.276Z,96.83
2019-05-18T03:49:27.046Z,96.15
2019-05-18T03:51:48.205Z,95.44
2019-05-18T03:54:17.211Z,96.23
2019-05-18T03:56:46.295Z,96.70
2019-05-18T03:59:15.530Z,96.29
2019-05-18T04:01:44.617Z,96.61
2019-05-18T04:04:13.800Z,95.77
2019-05-18T04:06:42.852Z,96.02
2019-05-18T04:09:11.986Z,97.34
2019-05-18T04:11:40.974Z,96.88
2019-05-18T04:14:10.039Z,95.78
2019-05-18T04:16:44.316Z,94.61
2019-05-18T04:19:13.375Z,94.10
2019-05-18T04:21:42.513Z,93.72
2019-05-18T04:24:11.638Z,94.10
2019-05-18T04:26:40.678Z,94.76
2019-05-18T04:29:09.813Z,94.68
2019-05-18T04:31:38.953Z,95.02
2019-05-18T04:34:08.027Z,94.82
2019-05-18T04:36:37.076Z,95.55
2019-05-18T04:39:06.772Z,96.11
2019-05-18T04:41:35.848Z,95.73
2019-05-18T04:44:04.907Z,96.25
2019-05-18T04:46:36.918Z,96.57
2019-05-18T04:49:05.535Z,95.10
2019-05-18T04:51:34.603Z,95.24
2019-05-18T04:54:03.883Z,95.84
2019-05-18T04:56:32.982Z,93.92
2019-05-18T04:59:02.091Z,92.70
2019-05-18T05:01:31.198Z,92.50
2019-05-18T05:04:00.241Z,93.04
2019-05-18T05:06:29.318Z,91.41
2019-05-18T05:08:58.460Z,93.08
2019-05-18T05:11:27.539Z,92.80
2019-05-18T05:13:56.708Z,90.89
2019-05-18T05:16:25.791Z,89.68
2019-05-18T05:18:54.941Z,88.58
2019-05-18T05:21:23.962Z,88.28
2019-05-18T05:23:53.087Z,89.81
2019-05-18T05:26:22.150Z,90.91
2019-05-18T05:28:51.325Z,91.29
2019-05-18T05:31:20.423Z,91.11
2019-05-18T05:33:49.473Z,90.71
2019-05-18T05:36:18.527Z,90.92
2019-05-18T05:38:47.573Z,90.87
2019-05-18T05:41:16.943Z,91.56
2019-05-18T05:43:46.058Z,91.35
2019-05-18T05:46:15.091Z,91.42
2019-05-18T05:48:44.239Z,91.01
2019-05-18T05:51:13.361Z,91.12
2019-05-18T05:53:42.415Z,89.70
2019-05-18T05:56:11.544Z,87.27
2019-05-18T05:58:40.588Z,88.01
2019-05-18T06:01:09.678Z,88.64
2019-05-18T06:03:38.760Z,88.13
2019-05-18T06:06:07.973Z,86.93
2019-05-18T06:08:37.101Z,87.38
2019-05-18T06:11:06.289Z,86.94
2019-05-18T06:13:35.294Z,85.23
2019-05-18T06:16:04.477Z,85.29
2019-05-18T06:18:33.717Z,79.89
2019-05-18T06:21:02.928Z,79.10
2019-05-18T06:23:32.035Z,75.55
2019-05-18T06:26:01.180Z,72.57
2019-05-18T06:28:30.408Z,71.71
2019-05-18T06:30:59.665Z,70.89
2019-05-18T06:33:28.963Z,69.45
2019-05-18T06:35:58.426Z,72.08
2019-05-18T06:38:27.562Z,72.15
2019-05-18T06:40:56.670Z,73.79
2019-05-18T06:43:25.759Z,71.92
2019-05-18T06:45:55.002Z,67.42
2019-05-18T06:48:25.850Z,66.05
2019-05-18T06:51:06.794Z,65.69
2019-05-18T06:53:26.050Z,66.47
2019-05-18T06:55:55.309Z,67.33
2019-05-18T06:58:24.450Z,67.73
2019-05-18T07:00:53.633Z,68.91
2019-05-18T07:03:22.711Z,69.97
2019-05-18T07:05:52.102Z,66.62
2019-05-18T07:08:21.153Z,68.00
2019-05-18T07:10:50.359Z,66.01
2019-05-18T07:13:19.470Z,66.06
2019-05-18T07:15:48.562Z,61.05
2019-05-18T07:18:17.823Z,60.17
2019-05-18T07:20:47.006Z,60.33
2019-05-18T07:23:16.228Z,63.62
2019-05-18T07:25:45.517Z,67.00
2019-05-18T07:28:14.596Z,63.41
2019-05-18T07:30:43.728Z,62.05
2019-05-18T07:33:12.932Z,59.84
2019-05-18T07:35:41.987Z,58.07
2019-05-18T07:38:11.049Z,62.38
2019-05-18T07:40:40.055Z,64.87
2019-05-18T07:43:09.224Z,62.21
2019-05-18T07:45:38.257Z,67.16
2019-05-18T07:48:07.375Z,63.75
2019-05-18T07:50:36.478Z,58.07
2019-05-18T07:53:05.669Z,61.07
2019-05-18T07:55:34.790Z,57.61
2019-05-18T07:58:03.918Z,56.41
2019-05-18T08:00:33.054Z,54.98
2019-05-18T08:03:02.490Z,52.52
2019-05-18T08:05:31.652Z,49.00
2019-05-18T08:08:00.718Z,47.35
2019-05-18T08:10:38.161Z,48.92
2019-05-18T08:13:07.953Z,47.89
2019-05-18T08:15:37.045Z,48.91
2019-05-18T08:18:06.136Z,48.53
2019-05-18T08:20:35.168Z,49.01
2019-05-18T08:23:04.272Z,43.71
2019-05-18T08:25:33.509Z,44.73
2019-05-18T08:28:02.656Z,46.77
2019-05-18T08:30:31.932Z,45.67
2019-05-18T08:33:02.482Z,43.42
2019-05-18T08:35:31.624Z,41.34
2019-05-18T08:38:00.709Z,44.21
2019-05-18T08:40:29.784Z,44.88
2019-05-18T08:42:59.971Z,45.32
2019-05-18T08:45:29.097Z,45.47
2019-05-18T08:47:58.186Z,44.45
2019-05-18T08:50:27.301Z,51.57
2019-05-18T08:52:56.497Z,52.35
2019-05-18T08:55:25.699Z,51.60
2019-05-18T08:57:54.794Z,52.31
2019-05-18T09:00:23.889Z,54.29
2019-05-18T09:02:52.990Z,56.42
2019-05-18T09:05:22.186Z,54.79
2019-05-18T09:07:51.234Z,51.89
2019-05-18T09:10:20.829Z,49.56
2019-05-18T09:12:49.965Z,47.18
2019-05-18T09:15:19.450Z,48.26
2019-05-18T09:17:48.507Z,48.80
2019-05-18T09:20:17.758Z,49.79
2019-05-18T09:22:48.407Z,49.54
2019-05-18T09:25:17.561Z,53.54
2019-05-18T09:27:46.582Z,55.09
2019-05-18T09:30:15.692Z,50.62
2019-05-18T09:32:44.801Z,49.38
2019-05-18T09:35:13.940Z,55.08
2019-05-18T09:37:43.067Z,50.80
2019-05-18T09:40:12.157Z,49.83
2019-05-18T09:42:41.220Z,49.82
2019-05-18T09:45:10.454Z,50.01
2019-05-18T09:47:39.531Z,51.92
2019-05-18T09:50:08.697Z,52.60
2019-05-18T09:52:46.170Z,52.48
2019-05-18T09:55:08.751Z,52.12
2019-05-18T09:57:37.768Z,55.35
2019-05-18T10:00:08.003Z,51.81
2019-05-18T10:02:37.082Z,52.85
2019-05-18T10:05:06.468Z,55.32
2019-05-18T10:07:35.546Z,55.32
2019-05-18T10:10:04.904Z,53.08
2019-05-18T10:12:34.099Z,53.08
2019-05-18T10:15:03.269Z,56.75
2019-05-18T10:17:32.467Z,53.97
2019-05-18T10:20:02.864Z,55.05
2019-05-18T10:22:31.954Z,52.63
2019-05-18T10:25:00.975Z,49.00
2019-05-18T10:27:30.032Z,49.00
2019-05-18T10:29:59.116Z,49.37
2019-05-18T10:32:28.155Z,50.60
2019-05-18T10:34:57.219Z,46.40
2019-05-18T10:37:26.281Z,45.51
2019-05-18T10:39:55.340Z,44.77
2019-05-18T10:42:24.347Z,45.80
2019-05-18T10:44:53.453Z,42.75
2019-05-18T10:47:22.452Z,42.62
2019-05-18T10:49:51.648Z,41.70
2019-05-18T10:52:20.878Z,43.63
2019-05-18T10:54:49.917Z,43.78
2019-05-18T10:57:18.965Z,39.45
2019-05-18T10:59:48.073Z,38.53
2019-05-18T11:02:17.238Z,42.01
2019-05-18T11:04:46.246Z,38.39
2019-05-18T11:07:15.319Z,36.86
2019-05-18T11:09:44.389Z,34.75
2019-05-18T11:12:13.483Z,34.72
2019-05-18T11:14:42.522Z,35.67
2019-05-18T11:17:11.620Z,35.96
2019-05-18T11:19:40.689Z,37.80
2019-05-18T11:22:11.859Z,37.76
2019-05-18T11:24:40.887Z,38.61
2019-05-18T11:27:09.995Z,39.88
2019-05-18T11:29:39.083Z,42.05
2019-05-18T11:32:08.280Z,39.24
2019-05-18T11:34:37.365Z,40.59
2019-05-18T11:37:06.533Z,41.40
2019-05-18T11:39:35.621Z,38.04
2019-05-18T11:42:04.699Z,39.12
2019-05-18T11:44:33.728Z,39.14
2019-05-18T11:47:02.885Z,39.79
2019-05-18T11:49:31.976Z,42.31
2019-05-18T11:52:01.140Z,43.86
2019-05-18T11:54:30.235Z,44.76
2019-05-18T11:56:59.374Z,45.63
2019-05-18T11:59:28.471Z,41.79
2019-05-18T12:01:57.578Z,40.45
2019-05-18T12:04:26.674Z,40.95
2019-05-18T12:06:55.816Z,40.28
2019-05-18T12:09:25.784Z,40.36
2019-05-18T12:11:54.853Z,42.59
2019-05-18T12:14:24.022Z,40.48
2019-05-18T12:16:53.148Z,41.36
2019-05-18T12:19:22.162Z,39.58
2019-05-18T12:21:51.249Z,39.17
2019-05-18T12:24:20.333Z,39.40
2019-05-18T12:26:49.535Z,38.28
2019-05-18T12:29:18.586Z,42.16
2019-05-18T12:31:47.620Z,40.23
2019-05-18T12:34:16.704Z,41.95
2019-05-18T12:36:45.747Z,40.31
2019-05-18T12:39:14.850Z,37.11
2019-05-18T12:41:43.945Z,38.96
2019-05-18T12:44:12.988Z,38.31
2019-05-18T12:46:42.284Z,41.21
2019-05-18T12:49:11.389Z,37.53
2019-05-18T12:51:40.582Z,38.27
2019-05-18T12:54:09.733Z,39.73
2019-05-18T12:56:38.822Z,41.28
2019-05-18T12:59:07.951Z,38.18
2019-05-18T13:01:36.991Z,36.98
2019-05-18T13:04:06.214Z,35.01
2019-05-18T13:06:35.386Z,38.18
2019-05-18T13:09:05.951Z,38.57
2019-05-18T13:11:35.022Z,37.43
2019-05-18T13:14:04.200Z,37.31
2019-05-18T13:16:33.354Z,38.66
2019-05-18T13:19:02.495Z,38.44
2019-05-18T13:21:31.512Z,37.84
2019-05-18T13:24:00.738Z,38.06
2019-05-18T13:26:29.822Z,39.01
2019-05-18T13:28:58.986Z,38.32
2019-05-18T13:31:28.078Z,37.67
2019-05-18T13:33:57.209Z,37.93
2019-05-18T13:36:26.299Z,36.94
2019-05-18T13:38:55.394Z,37.58
2019-05-18T13:41:24.489Z,42.78
2019-05-18T13:43:53.650Z,40.89
2019-05-18T13:46:22.727Z,42.90
2019-05-18T13:48:51.883Z,40.36
2019-05-18T13:51:20.950Z,41.17
2019-05-18T13:53:50.214Z,42.00
2019-05-18T13:56:19.261Z,41.34
2019-05-18T13:58:48.312Z,42.04
2019-05-18T14:01:17.496Z,40.14
2019-05-18T14:03:46.636Z,41.60
2019-05-18T14:06:15.724Z,42.62
2019-05-18T14:08:44.813Z,41.37
2019-05-18T14:11:13.859Z,42.32
2019-05-18T14:13:42.904Z,42.27
2019-05-18T14:16:12.083Z,42.38
2019-05-18T14:18:41.137Z,42.96
2019-05-18T14:21:10.208Z,42.24
2019-05-18T14:23:39.298Z,42.87
2019-05-18T14:26:08.334Z,42.15
2019-05-18T14:28:37.465Z,42.20
2019-05-18T14:31:06.561Z,41.70
2019-05-18T14:33:35.693Z,42.76
2019-05-18T14:36:04.843Z,42.13
2019-05-18T14:38:33.827Z,43.41
2019-05-18T14:41:02.981Z,44.52
2019-05-18T14:43:32.148Z,44.79
2019-05-18T14:46:01.295Z,44.77
2019-05-18T14:48:30.347Z,45.27
2019-05-18T14:50:59.468Z,44.87
2019-05-18T14:53:28.574Z,45.36
2019-05-18T14:55:57.611Z,47.08
2019-05-18T14:58:26.819Z,55.13
2019-05-18T15:00:56.049Z,62.30
2019-05-18T15:03:25.222Z,69.12
2019-05-18T15:05:54.423Z,71.64
2019-05-18T15:08:23.646Z,76.44
2019-05-18T15:10:52.906Z,78.26
2019-05-18T15:13:22.066Z,79.56
2019-05-18T15:15:51.167Z,81.94
2019-05-18T15:18:20.376Z,83.52
2019-05-18T15:20:49.567Z,86.98
2019-05-18T15:23:18.812Z,86.15
2019-05-18T15:25:51.136Z,85.27
2019-05-18T15:28:18.954Z,86.71
2019-05-18T15:30:48.218Z,82.07
2019-05-18T15:33:17.348Z,80.97
2019-05-18T15:35:46.537Z,83.16
2019-05-18T15:38:15.764Z,79.19
2019-05-18T15:40:44.976Z,78.63
2019-05-18T15:43:14.149Z,78.49
2019-05-18T15:45:43.317Z,79.42
2019-05-18T15:48:12.504Z,80.39
2019-05-18T15:50:41.616Z,76.80
2019-05-18T15:53:10.843Z,78.07
2019-05-18T15:55:39.976Z,78.70
2019-05-18T15:58:09.114Z,78.91
2019-05-18T16:00:38.176Z,79.83
2019-05-18T16:03:07.310Z,79.34
2019-05-18T16:05:36.522Z,76.79
2019-05-18T16:08:05.633Z,79.39
2019-05-18T16:10:34.788Z,78.65
2019-05-18T16:13:03.886Z,79.60
2019-05-18T16:15:32.990Z,77.56
2019-05-18T16:18:02.118Z,77.23
2019-05-18T16:20:31.167Z,76.70
2019-05-18T16:23:00.255Z,77.93
2019-05-18T16:25:29.334Z,77.32
2019-05-18T16:27:58.448Z,77.59
2019-05-18T16:30:27.535Z,76.18
2019-05-18T16:32:56.677Z,75.70
2019-05-18T16:35:25.780Z,77.12
2019-05-18T16:37:55.001Z,77.86
2019-05-18T16:40:24.092Z,77.59
2019-05-18T16:42:53.219Z,76.83
2019-05-18T16:45:22.241Z,76.13
2019-05-18T16:47:51.459Z,75.67
2019-05-18T16:50:20.935Z,76.15
2019-05-18T16:52:50.070Z,77.41
2019-05-18T16:55:19.115Z,77.27
2019-05-18T16:57:48.197Z,76.85
2019-05-18T17:00:17.270Z,75.63
2019-05-18T17:02:46.302Z,76.04
2019-05-18T17:05:15.358Z,75.55
2019-05-18T17:07:44.350Z,77.26
2019-05-18T17:10:13.390Z,77.09
2019-05-18T17:12:42.472Z,76.45
2019-05-18T17:15:11.557Z,75.56
2019-05-18T17:17:40.623Z,76.64
2019-05-18T17:20:09.649Z,77.66
2019-05-18T17:22:38.725Z,76.87
2019-05-18T17:25:07.854Z,77.15
2019-05-18T17:27:36.837Z,76.53
2019-05-18T17:30:06.332Z,77.24
2019-05-18T17:32:35.427Z,77.02
2019-05-18T17:35:04.691Z,74.20
2019-05-18T17:37:33.731Z,72.75
2019-05-18T17:40:02.968Z,72.17
2019-05-18T17:42:32.057Z,70.22
2019-05-18T17:45:01.146Z,72.94
2019-05-18T17:47:30.173Z,73.10
2019-05-18T17:50:00.428Z,71.41
2019-05-18T17:52:29.713Z,71.37
2019-05-18T17:54:58.814Z,69.80
2019-05-18T17:57:27.944Z,69.20
2019-05-18T17:59:57.026Z,68.09
2019-05-18T18:02:26.062Z,67.31
2019-05-18T18:04:55.200Z,68.46
2019-05-18T18:07:24.224Z,69.53
2019-05-18T18:09:53.317Z,69.74
2019-05-18T18:12:22.406Z,69.99
2019-05-18T18:14:51.484Z,74.34
2019-05-18T18:17:20.596Z,75.71
2019-05-18T18:19:49.660Z,78.11
2019-05-18T18:22:18.703Z,79.86
2019-05-18T18:24:47.817Z,80.64
2019-05-18T18:27:25.199Z,82.99
2019-05-18T18:29:47.856Z,81.97
2019-05-18T18:32:17.048Z,78.88
2019-05-18T18:34:46.104Z,77.71
2019-05-18T18:37:15.160Z,78.05
2019-05-18T18:39:44.304Z,77.49
2019-05-18T18:42:13.387Z,77.37
2019-05-18T18:44:42.437Z,78.37
2019-05-18T18:47:11.569Z,79.02
2019-05-18T18:49:40.603Z,78.20
2019-05-18T18:52:09.748Z,79.44
2019-05-18T18:54:38.911Z,79.37
2019-05-18T18:57:08.162Z,80.22
2019-05-18T18:59:37.239Z,80.30
2019-05-18T19:02:06.417Z,79.88
2019-05-18T19:04:35.408Z,81.12
2019-05-18T19:07:04.505Z,80.68
2019-05-18T19:09:33.580Z,81.06
2019-05-18T19:12:02.673Z,81.93
2019-05-18T19:14:31.672Z,81.79
2019-05-18T19:17:00.854Z,81.97
2019-05-18T19:19:29.997Z,81.93
2019-05-18T19:21:59.056Z,83.11
2019-05-18T19:24:28.184Z,83.72
2019-05-18T19:26:57.624Z,85.08
2019-05-18T19:29:26.640Z,83.89
2019-05-18T19:31:55.752Z,84.18
2019-05-18T19:34:24.883Z,85.00
2019-05-18T19:36:53.977Z,86.30
2019-05-18T19:39:23.010Z,85.74
2019-05-18T19:41:52.186Z,85.02
2019-05-18T19:44:23.866Z,85.65
2019-05-18T19:46:52.130Z,86.60
2019-05-18T19:49:21.145Z,87.92
2019-05-18T19:51:50.218Z,88.23
2019-05-18T19:54:19.358Z,89.52
2019-05-18T19:56:48.406Z,89.37
2019-05-18T19:59:17.535Z,88.67
2019-05-18T20:01:46.741Z,87.86
2019-05-18T20:04:15.951Z,88.53
2019-05-18T20:06:45.065Z,87.91
2019-05-18T20:09:14.109Z,89.26
2019-05-18T20:11:43.296Z,90.54
2019-05-18T20:14:12.383Z,90.10
2019-05-18T20:16:41.563Z,89.46
2019-05-18T20:19:10.627Z,89.15
2019-05-18T20:21:39.715Z,89.19
2019-05-18T20:24:08.905Z,90.11
2019-05-18T20:26:37.936Z,89.83
2019-05-18T20:29:07.007Z,89.13
2019-05-18T20:31:36.010Z,90.18
2019-05-18T20:34:05.181Z,89.79
2019-05-18T20:36:34.330Z,90.77
2019-05-18T20:39:04.030Z,92.94
2019-05-18T20:41:33.202Z,93.07
2019-05-18T20:44:02.275Z,92.51
2019-05-18T20:46:31.352Z,92.49
2019-05-18T20:49:00.455Z,90.48
2019-05-18T20:51:29.507Z,91.12
2019-05-18T20:53:58.654Z,93.34
2019-05-18T20:56:27.701Z,91.87
2019-05-18T20:58:57.366Z,89.67
2019-05-18T21:01:26.500Z,90.43
2019-05-18T21:03:55.637Z,90.10
2019-05-18T21:06:24.774Z,90.46
2019-05-18T21:08:54.063Z,89.83
2019-05-18T21:11:23.085Z,90.87
2019-05-18T21:13:52.232Z,90.83
2019-05-18T21:16:21.321Z,90.24
2019-05-18T21:18:50.521Z,89.84
2019-05-18T21:21:25.041Z,89.10
2019-05-18T21:23:50.599Z,89.88
2019-05-18T21:26:19.745Z,89.51
2019-05-18T21:28:59.132Z,89.93
2019-05-18T21:31:19.648Z,90.39
2019-05-18T21:33:48.802Z,91.67
2019-05-18T21:36:17.912Z,92.29
2019-05-18T21:38:47.060Z,94.16
2019-05-18T21:41:16.141Z,95.13
2019-05-18T21:43:45.187Z,96.10
2019-05-18T21:46:14.265Z,96.81
2019-05-18T21:48:43.443Z,96.92
2019-05-18T21:51:12.544Z,96.25
2019-05-18T21:53:41.899Z,95.75
2019-05-18T21:56:11.051Z,95.42
2019-05-18T21:58:40.186Z,95.46
2019-05-18T22:01:09.378Z,94.22
2019-05-18T22:03:38.489Z,94.81
2019-05-18T22:06:07.651Z,94.58
2019-05-18T22:08:36.793Z,94.60
2019-05-18T22:11:06.158Z,94.83
2019-05-18T22:13:35.386Z,94.71
2019-05-18T22:16:04.578Z,94.48
2019-05-18T22:18:33.784Z,94.36
2019-05-18T22:21:02.877Z,94.16
2019-05-18T22:23:31.912Z,94.01
2019-05-18T22:26:01.038Z,94.73
2019-05-18T22:28:30.159Z,96.08
2019-05-18T22:30:59.186Z,95.86
2019-05-18T22:33:28.258Z,95.52
2019-05-18T22:35:57.288Z,96.17
2019-05-18T22:38:26.397Z,97.05
2019-05-18T22:40:55.419Z,97.46
2019-05-18T22:43:24.542Z,97.10
2019-05-18T22:45:53.746Z,97.59
2019-05-18T22:48:22.845Z,96.43
2019-05-18T22:50:51.992Z,96.12
2019-05-18T22:53:21.044Z,96.48
2019-05-18T22:55:50.219Z,96.27
2019-05-18T22:58:19.248Z,95.85
2019-05-18T23:00:48.347Z,96.46
2019-05-18T23:03:17.463Z,96.60
2019-05-18T23:05:46.505Z,96.47
2019-05-18T23:08:15.543Z,99.00
2019-05-18T23:10:44.670Z,98.95
2019-05-18T23:13:13.746Z,98.65
2019-05-18T23:15:42.824Z,99.07
2019-05-18T23:18:11.904Z,99.46
2019-05-18T23:20:40.994Z,98.83
2019-05-18T23:23:10.060Z,99.52
2019-05-18T23:25:39.100Z,99.90
2019-05-18T23:28:08.309Z,100.00
2019-05-18T23:30:37.403Z,100.00
2019-05-18T23:33:06.440Z,100.00
2019-05-18T23:35:35.510Z,100.00
2019-05-18T23:38:04.607Z,100.00
2019-05-18T23:40:33.719Z,99.05
2019-05-18T23:43:02.774Z,99.87
2019-05-18T23:45:31.831Z,100.00
2019-05-18T23:48:00.914Z,100.00
2019-05-18T23:50:30.018Z,100.00
2019-05-18T23:52:59.169Z,99.82
2019-05-18T23:55:28.283Z,100.00
2019-05-18T23:58:05.216Z,100.00
